Time;durP1;ratioP1;P1;durP2;ratioP2;P2;SDS_P1;SDS_P2;PMS_P1;PMS_P2;Temp;Humidity;BMP_temperature;BMP_pressure;BME280_temperature;BME280_humidity;BME280_pressure;Samples;Min_cycle;Max_cycle;Signal;HPM_P1;HPM_P2
2022/07/17 00:00:53;;;;;;;4.63;1.60;;;15.50;1.00;;;;;;6292311;22;20399;-90
2022/07/17 00:03:20;;;;;;;3.33;1.50;;;15.50;1.00;;;;;;6292752;22;20419;-91
2022/07/17 00:05:51;;;;;;;3.00;1.90;;;15.50;1.00;;;;;;6291764;22;20415;-89
2022/07/17 00:08:18;;;;;;;5.50;2.07;;;15.40;1.00;;;;;;6291971;22;20922;-89
2022/07/17 00:10:52;;;;;;;5.53;2.10;;;15.40;1.00;;;;;;6292829;22;20450;-90
2022/07/17 00:13:19;;;;;;;5.10;2.30;;;15.40;1.00;;;;;;6294644;22;20394;-90
2022/07/17 00:15:48;;;;;;;5.57;2.17;;;15.40;1.00;;;;;;6293070;22;20403;-89
2022/07/17 00:18:15;;;;;;;3.53;2.00;;;15.30;1.00;;;;;;6292496;22;20509;-88
2022/07/17 00:20:52;;;;;;;3.50;1.90;;;15.30;1.00;;;;;;6289869;22;20399;-88
2022/07/17 00:23:21;;;;;;;2.87;2.00;;;15.30;1.00;;;;;;6293222;22;20450;-90
2022/07/17 00:25:48;;;;;;;2.07;1.30;;;15.30;1.00;;;;;;6290353;22;20415;-88
2022/07/17 00:28:16;;;;;;;4.90;1.97;;;15.20;1.00;;;;;;6292519;22;20902;-88
2022/07/17 00:30:48;;;;;;;5.07;1.53;;;15.20;1.00;;;;;;6290407;22;20439;-90
2022/07/17 00:33:15;;;;;;;3.17;1.90;;;15.20;1.00;;;;;;6292257;22;20501;-89
2022/07/17 00:35:49;;;;;;;3.80;2.00;;;15.20;1.00;;;;;;6291600;22;20445;-90
2022/07/17 00:38:16;;;;;;;2.90;1.47;;;15.20;1.00;;;;;;6293092;22;20474;-88
2022/07/17 00:40:49;;;;;;;3.30;2.10;;;15.10;1.00;;;;;;6292532;22;20396;-88
2022/07/17 00:43:16;;;;;;;4.70;2.43;;;15.10;1.00;;;;;;6294452;22;20832;-90
2022/07/17 00:45:56;;;;;;;5.60;1.70;;;15.10;1.00;;;;;;6291763;22;20399;-90
2022/07/17 00:48:29;;;;;;;2.20;1.83;;;15.00;1.00;;;;;;6295542;22;20406;-90
2022/07/17 00:50:56;;;;;;;4.97;1.70;;;15.00;1.00;;;;;;6293927;22;20423;-90
2022/07/17 00:53:35;;;;;;;4.90;1.73;;;15.00;1.00;;;;;;6294337;22;20423;-90
2022/07/17 00:56:08;;;;;;;6.67;2.17;;;15.00;1.00;;;;;;6291585;22;20415;-89
2022/07/17 00:58:37;;;;;;;2.80;1.53;;;15.00;1.00;;;;;;6294450;22;20435;-88
2022/07/17 01:01:14;;;;;;;3.07;1.77;;;14.90;1.00;;;;;;6292210;22;20431;-91
2022/07/17 01:03:41;;;;;;;7.50;2.10;;;14.90;1.00;;;;;;6293695;22;20415;-89
2022/07/17 01:06:09;;;;;;;4.93;1.83;;;14.90;1.00;;;;;;6294583;22;20386;-89
2022/07/17 01:08:37;;;;;;;4.00;2.20;;;14.80;1.00;;;;;;6292566;22;20427;-88
2022/07/17 01:11:10;;;;;;;6.90;2.20;;;14.80;1.00;;;;;;6289468;22;20407;-89
2022/07/17 01:13:38;;;;;;;1.77;1.60;;;14.80;1.00;;;;;;6291920;22;20418;-91
2022/07/17 01:16:11;;;;;;;3.30;1.40;;;14.80;1.00;;;;;;6292981;22;20451;-90
2022/07/17 01:18:38;;;;;;;3.40;2.13;;;14.70;1.00;;;;;;6293526;22;20418;-90
2022/07/17 01:21:16;;;;;;;2.73;1.90;;;14.80;1.00;;;;;;6293459;22;20393;-90
2022/07/17 01:23:49;;;;;;;3.87;1.87;;;14.70;1.00;;;;;;6290694;22;20383;-89
2022/07/17 01:26:16;;;;;;;4.77;2.17;;;14.60;1.00;;;;;;6293714;22;20391;-90
2022/07/17 01:28:50;;;;;;;7.10;2.10;;;14.60;1.00;;;;;;6278964;22;20403;-90
2022/07/17 01:31:18;;;;;;;3.47;2.00;;;14.60;1.00;;;;;;6292300;22;20468;-90
2022/07/17 01:33:49;;;;;;;3.60;2.10;;;14.50;1.00;;;;;;6291856;22;20579;-89
2022/07/17 01:36:25;;;;;;;8.20;2.17;;;14.60;1.00;;;;;;6292678;22;20502;-90
2022/07/17 01:38:52;;;;;;;6.70;2.50;;;14.60;1.00;;;;;;6292331;22;20469;-91
2022/07/17 01:41:19;;;;;;;5.67;2.00;;;14.50;1.00;;;;;;6293140;22;20446;-91
2022/07/17 01:43:51;;;;;;;3.13;2.40;;;14.50;1.00;;;;;;6293898;22;20383;-87
2022/07/17 01:46:18;;;;;;;3.73;2.00;;;14.50;1.00;;;;;;6291820;22;20383;-88
2022/07/17 01:48:53;;;;;;;3.90;1.97;;;14.40;1.00;;;;;;6293423;22;20506;-89
2022/07/17 01:51:29;;;;;;;5.87;2.30;;;14.40;1.00;;;;;;6297704;22;20496;-89
2022/07/17 01:53:56;;;;;;;5.13;2.17;;;14.30;1.00;;;;;;6293567;22;20441;-91
2022/07/17 01:56:33;;;;;;;5.30;1.83;;;14.30;1.00;;;;;;6292531;22;20547;-91
2022/07/17 01:59:00;;;;;;;3.80;1.70;;;14.30;1.00;;;;;;6292675;22;20461;-91
2022/07/17 02:01:31;;;;;;;3.60;2.33;;;14.30;1.00;;;;;;6294099;22;20395;-91
2022/07/17 02:04:01;;;;;;;6.77;2.13;;;14.20;1.00;;;;;;6293737;22;20474;-90
2022/07/17 02:06:32;;;;;;;4.13;2.10;;;14.20;1.00;;;;;;6293619;22;20387;-91
2022/07/17 02:08:59;;;;;;;3.93;2.20;;;14.20;1.00;;;;;;6291407;22;20396;-91
2022/07/17 02:11:31;;;;;;;4.50;1.87;;;14.20;1.00;;;;;;6292700;22;20399;-91
2022/07/17 02:13:58;;;;;;;6.20;2.70;;;14.10;1.00;;;;;;6292572;22;20422;-89
2022/07/17 02:16:33;;;;;;;3.93;2.50;;;14.10;1.00;;;;;;6295058;22;20407;-91
2022/07/17 02:19:01;;;;;;;5.83;2.20;;;14.10;1.00;;;;;;6294278;22;20815;-91
2022/07/17 02:21:32;;;;;;;3.50;1.53;;;14.10;1.00;;;;;;6295877;22;20455;-90
2022/07/17 02:23:59;;;;;;;3.23;2.20;;;14.00;1.00;;;;;;6294080;22;20407;-90
2022/07/17 02:26:29;;;;;;;4.60;2.40;;;14.10;1.00;;;;;;6293695;22;20399;-92
2022/07/17 02:28:56;;;;;;;6.87;2.33;;;14.10;1.00;;;;;;6294141;22;20438;-91
2022/07/17 02:31:28;;;;;;;2.80;1.60;;;14.00;1.00;;;;;;6292176;22;20518;-90
2022/07/17 02:33:55;;;;;;;4.07;2.17;;;14.00;1.00;;;;;;6292815;22;20455;-88
2022/07/17 02:36:29;;;;;;;5.50;2.03;;;14.00;1.00;;;;;;6293631;22;20403;-90
2022/07/17 02:38:58;;;;;;;4.10;2.20;;;14.00;1.00;;;;;;6292476;22;20419;-89
2022/07/17 02:41:31;;;;;;;3.03;1.93;;;13.90;1.00;;;;;;6294197;22;20395;-89
2022/07/17 02:44:00;;;;;;;4.90;2.53;;;13.90;1.00;;;;;;6296038;22;20433;-92
2022/07/17 02:46:30;;;;;;;5.70;2.47;;;13.90;1.00;;;;;;6295666;22;20414;-91
2022/07/17 02:48:57;;;;;;;5.50;3.50;;;13.80;1.00;;;;;;6294423;22;20463;-92
2022/07/17 02:51:30;;;;;;;3.77;2.40;;;13.80;1.00;;;;;;6293249;22;20403;-88
2022/07/17 02:54:01;;;;;;;5.87;1.83;;;13.80;1.00;;;;;;6291882;22;20382;-90
2022/07/17 02:56:31;;;;;;;4.07;3.03;;;13.80;1.00;;;;;;6293857;22;20379;-88
2022/07/17 02:58:58;;;;;;;4.57;2.60;;;13.70;1.00;;;;;;6293628;22;20419;-92
2022/07/17 03:01:33;;;;;;;3.30;2.10;;;13.70;1.00;;;;;;6295075;22;20383;-90
2022/07/17 03:04:00;;;;;;;5.77;2.40;;;13.70;1.00;;;;;;6293280;22;20589;-91
2022/07/17 03:06:29;;;;;;;3.87;2.30;;;13.70;1.00;;;;;;6296202;22;20458;-91
2022/07/17 03:08:56;;;;;;;7.93;2.70;;;13.70;1.00;;;;;;6291425;22;20508;-92
2022/07/17 03:11:27;;;;;;;4.20;2.40;;;13.70;1.00;;;;;;6291454;22;20516;-91
2022/07/17 03:13:54;;;;;;;3.63;2.20;;;13.70;1.00;;;;;;6290324;22;20411;-92
2022/07/17 03:16:21;;;;;;;7.13;2.10;;;13.70;1.00;;;;;;6291659;22;20449;-91
2022/07/17 03:18:48;;;;;;;3.43;1.93;;;13.60;1.00;;;;;;6288646;22;20470;-91
2022/07/17 03:21:15;;;;;;;7.70;2.50;;;13.60;1.00;;;;;;6290611;22;20992;-91
2022/07/17 03:23:41;;;;;;;3.43;1.93;;;13.60;1.00;;;;;;6288888;22;20427;-92
2022/07/17 03:26:08;;;;;;;4.40;1.93;;;13.60;1.00;;;;;;6290303;22;20466;-91
2022/07/17 03:28:37;;;;;;;4.57;2.30;;;13.60;1.00;;;;;;6290074;22;20399;-91
2022/07/17 03:31:04;;;;;;;3.70;2.47;;;13.60;1.00;;;;;;6288584;22;20384;-91
2022/07/17 03:33:31;;;;;;;4.90;2.07;;;13.60;1.00;;;;;;6289623;22;20502;-91
2022/07/17 03:35:58;;;;;;;2.90;1.90;;;13.60;1.00;;;;;;6287968;22;20506;-92
2022/07/17 03:38:27;;;;;;;6.47;1.93;;;13.60;1.00;;;;;;6288529;22;20367;-91
2022/07/17 03:40:59;;;;;;;4.40;2.60;;;13.60;1.00;;;;;;6292733;22;20430;-92
2022/07/17 03:43:26;;;;;;;4.57;1.93;;;13.60;1.00;;;;;;6294324;22;20447;-89
2022/07/17 03:45:59;;;;;;;4.20;2.00;;;13.60;1.00;;;;;;6292408;22;20391;-89
2022/07/17 03:48:28;;;;;;;5.13;2.00;;;13.60;1.00;;;;;;6294300;22;21077;-90
2022/07/17 03:51:01;;;;;;;4.70;1.60;;;13.60;1.00;;;;;;6293705;22;20397;-91
2022/07/17 03:53:28;;;;;;;3.60;1.83;;;13.60;1.00;;;;;;6294558;22;20411;-92
2022/07/17 03:55:59;;;;;;;7.10;3.30;;;13.50;1.00;;;;;;6294396;22;20481;-90
2022/07/17 03:58:28;;;;;;;5.10;2.13;;;13.50;1.00;;;;;;6294877;22;20981;-92
2022/07/17 04:01:00;;;;;;;7.57;2.40;;;13.60;1.00;;;;;;6294522;22;20482;-88
2022/07/17 04:03:29;;;;;;;2.30;1.90;;;13.60;1.00;;;;;;6292530;22;20395;-90
2022/07/17 04:05:59;;;;;;;5.50;2.10;;;13.60;1.00;;;;;;6292529;22;20400;-90
2022/07/17 04:08:28;;;;;;;3.80;1.90;;;13.60;1.00;;;;;;6296174;22;21016;-90
2022/07/17 04:10:59;;;;;;;7.00;2.00;;;13.60;1.00;;;;;;6294302;22;20391;-89
2022/07/17 04:13:28;;;;;;;2.67;2.07;;;13.60;1.00;;;;;;6296362;22;20447;-88
2022/07/17 04:16:00;;;;;;;5.80;2.17;;;13.60;1.00;;;;;;6294800;22;20399;-89
2022/07/17 04:18:31;;;;;;;7.20;2.30;;;13.60;1.00;;;;;;6292993;22;20427;-89
2022/07/17 04:21:09;;;;;;;6.60;2.03;;;13.60;1.00;;;;;;6292667;22;20401;-88
2022/07/17 04:23:37;;;;;;;3.30;1.80;;;13.60;1.00;;;;;;6295743;22;20454;-88
2022/07/17 04:26:09;;;;;;;4.63;2.17;;;13.70;1.00;;;;;;6291781;22;20609;-88
2022/07/17 04:28:36;;;;;;;3.70;2.20;;;13.70;1.00;;;;;;6295198;22;20416;-89
2022/07/17 04:31:12;;;;;;;4.50;1.83;;;13.70;1.00;;;;;;6294497;22;20578;-91
2022/07/17 04:33:39;;;;;;;4.40;2.30;;;13.70;1.00;;;;;;6295560;22;20414;-88
2022/07/17 04:36:10;;;;;;;3.93;2.53;;;13.80;1.00;;;;;;6294221;22;20463;-90
2022/07/17 04:38:37;;;;;;;4.00;1.80;;;13.80;1.00;;;;;;6295245;22;20430;-92
2022/07/17 04:41:14;;;;;;;3.30;2.10;;;13.80;1.00;;;;;;6292914;22;20415;-90
2022/07/17 04:43:41;;;;;;;5.00;2.00;;;13.90;1.00;;;;;;6293428;22;20419;-90
2022/07/17 04:46:11;;;;;;;6.47;2.27;;;13.90;1.00;;;;;;6293536;22;20484;-93
2022/07/17 04:48:38;;;;;;;5.17;2.70;;;14.00;1.00;;;;;;6292501;22;20423;-91
2022/07/17 04:51:11;;;;;;;3.00;1.80;;;14.00;1.00;;;;;;6293737;22;20398;-91
2022/07/17 04:53:39;;;;;;;4.40;2.27;;;14.10;1.00;;;;;;6293921;22;20422;-89
2022/07/17 04:56:12;;;;;;;3.77;1.93;;;14.10;1.00;;;;;;6293264;22;20422;-91
2022/07/17 04:58:39;;;;;;;4.60;1.90;;;14.10;1.00;;;;;;6293355;22;20457;-89
2022/07/17 05:01:11;;;;;;;3.33;2.10;;;14.20;1.00;;;;;;6297344;22;20403;-91
2022/07/17 05:03:38;;;;;;;4.00;1.80;;;14.20;1.00;;;;;;6295692;22;20494;-91
2022/07/17 05:06:11;;;;;;;4.73;1.60;;;14.20;1.00;;;;;;6296024;22;20383;-91
2022/07/17 05:08:40;;;;;;;4.40;2.03;;;14.20;1.00;;;;;;6297484;22;20422;-90
2022/07/17 05:11:13;;;;;;;5.83;2.10;;;14.20;1.00;;;;;;6297700;22;20438;-92
2022/07/17 05:13:40;;;;;;;4.00;2.17;;;14.20;1.00;;;;;;6293663;22;20419;-88
2022/07/17 05:16:14;;;;;;;4.60;2.03;;;14.20;1.00;;;;;;6295529;22;20403;-91
2022/07/17 05:18:41;;;;;;;5.13;2.00;;;14.30;1.00;;;;;;6299813;22;20430;-91
2022/07/17 05:21:11;;;;;;;3.20;1.90;;;14.30;1.00;;;;;;6299504;22;20437;-91
2022/07/17 05:23:38;;;;;;;6.50;2.27;;;14.40;1.00;;;;;;6298092;22;20399;-90
2022/07/17 05:26:10;;;;;;;2.90;2.23;;;14.50;1.00;;;;;;6295634;22;20418;-91
2022/07/17 05:28:37;;;;;;;6.13;2.10;;;14.60;1.00;;;;;;6299633;22;20417;-91
2022/07/17 05:31:17;;;;;;;3.80;1.90;;;14.60;1.00;;;;;;6298436;22;20396;-92
2022/07/17 05:33:49;;;;;;;3.50;2.00;;;14.70;1.00;;;;;;6300226;22;20429;-91
2022/07/17 05:36:19;;;;;;;4.47;1.80;;;14.70;1.00;;;;;;6298672;22;20635;-91
2022/07/17 05:38:58;;;;;;;6.20;1.93;;;14.80;1.00;;;;;;6298928;22;20400;-90
2022/07/17 05:41:31;;;;;;;4.57;2.03;;;14.90;1.00;;;;;;6295841;22;20427;-89
2022/07/17 05:43:59;;;;;;;3.60;1.93;;;15.00;1.00;;;;;;6293674;22;20409;-89
2022/07/17 05:46:30;;;;;;;4.70;2.00;;;15.00;1.00;;;;;;6293105;22;20427;-89
2022/07/17 05:49:00;;;;;;;2.80;1.73;;;15.00;1.00;;;;;;6293927;22;20402;-89
2022/07/17 05:51:28;;;;;;;3.07;2.13;;;15.10;1.00;;;;;;6296692;22;20419;-92
2022/07/17 05:53:59;;;;;;;5.43;2.53;;;15.10;1.00;;;;;;6295569;22;20379;-92
2022/07/17 05:56:26;;;;;;;4.37;2.10;;;15.20;1.00;;;;;;6295328;22;20426;-92
2022/07/17 05:58:57;;;;;;;3.37;2.03;;;15.30;1.00;;;;;;6293290;22;20439;-89
2022/07/17 06:01:24;;;;;;;2.13;1.53;;;15.50;1.00;;;;;;6294784;22;20899;-90
2022/07/17 06:03:58;;;;;;;4.23;2.10;;;15.70;1.00;;;;;;6292361;22;20442;-92
2022/07/17 06:06:26;;;;;;;3.20;2.00;;;16.00;1.00;;;;;;6295669;22;20455;-92
2022/07/17 06:09:03;;;;;;;6.27;2.37;;;16.20;1.00;;;;;;6295429;22;20422;-88
2022/07/17 06:11:30;;;;;;;2.80;2.17;;;16.20;1.00;;;;;;6295955;22;20848;-89
2022/07/17 06:13:59;;;;;;;2.43;1.50;;;16.20;1.00;;;;;;6294558;22;20399;-89
2022/07/17 06:16:28;;;;;;;4.70;2.10;;;16.10;1.00;;;;;;6298877;22;20466;-90
2022/07/17 06:19:00;;;;;;;3.87;2.47;;;16.00;1.00;;;;;;6294404;22;20398;-89
2022/07/17 06:21:30;;;;;;;4.27;2.20;;;16.00;1.00;;;;;;6294007;22;20505;-91
2022/07/17 06:23:57;;;;;;;3.30;2.07;;;16.20;1.00;;;;;;6294430;22;20504;-90
2022/07/17 06:26:32;;;;;;;9.13;2.40;;;16.30;1.00;;;;;;6294703;22;20448;-92
2022/07/17 06:28:59;;;;;;;2.83;1.43;;;16.50;1.00;;;;;;6292536;22;20419;-92
2022/07/17 06:31:30;;;;;;;3.40;2.40;;;16.50;1.00;;;;;;6295803;22;20398;-92
2022/07/17 06:33:58;;;;;;;5.83;2.00;;;16.60;1.00;;;;;;6283117;22;20466;-91
2022/07/17 06:36:32;;;;;;;4.43;2.07;;;16.60;1.00;;;;;;6297653;22;20453;-91
2022/07/17 06:38:59;;;;;;;5.27;2.03;;;16.60;1.00;;;;;;6295003;22;20372;-93
2022/07/17 06:41:35;;;;;;;3.73;1.73;;;16.70;1.00;;;;;;6283786;22;20387;-93
2022/07/17 06:44:15;;;;;;;2.30;2.00;;;16.90;1.00;;;;;;6295366;22;20467;-92
2022/07/17 06:46:42;;;;;;;3.00;1.97;;;17.10;1.00;;;;;;6297127;22;20386;-93
2022/07/17 06:49:11;;;;;;;4.10;2.63;;;17.10;1.00;;;;;;6295742;22;20405;-92
2022/07/17 06:51:38;;;;;;;3.10;1.60;;;17.20;1.00;;;;;;6296169;22;20455;-91
2022/07/17 06:54:10;;;;;;;4.57;2.00;;;17.40;1.00;;;;;;6294990;22;20387;-92
2022/07/17 06:56:40;;;;;;;4.90;1.70;;;17.40;1.00;;;;;;6297074;22;20419;-93
2022/07/17 06:59:11;;;;;;;6.37;2.20;;;17.40;1.00;;;;;;6294016;22;20375;-92
2022/07/17 07:01:39;;;;;;;6.03;2.43;;;17.50;1.00;;;;;;6295726;22;20446;-93
2022/07/17 07:04:12;;;;;;;2.83;2.13;;;17.60;1.00;;;;;;6296216;22;20406;-92
2022/07/17 07:06:39;;;;;;;4.03;1.83;;;17.60;1.00;;;;;;6296914;22;20462;-92
2022/07/17 07:09:12;;;;;;;4.20;2.33;;;17.60;1.00;;;;;;6295822;22;20414;-92
2022/07/17 07:11:42;;;;;;;7.20;2.23;;;17.70;1.00;;;;;;6293782;22;20474;-92
2022/07/17 07:14:12;;;;;;;3.00;2.00;;;17.60;1.00;;;;;;6294501;22;20387;-90
2022/07/17 07:16:39;;;;;;;5.07;2.10;;;17.70;1.00;;;;;;6295795;22;20399;-90
2022/07/17 07:19:10;;;;;;;4.20;1.50;;;17.60;1.00;;;;;;6294025;22;20372;-90
2022/07/17 07:21:38;;;;;;;3.23;1.70;;;17.70;1.00;;;;;;6293143;22;20438;-92
2022/07/17 07:24:19;;;;;;;3.23;1.50;;;17.70;1.00;;;;;;6294909;22;20436;-92
2022/07/17 07:26:50;;;;;;;3.93;1.80;;;17.60;1.00;;;;;;6294900;22;20475;-90
2022/07/17 07:29:17;;;;;;;2.60;2.00;;;17.60;1.00;;;;;;6294786;22;20431;-90
2022/07/17 07:31:49;;;;;;;4.83;2.40;;;17.80;1.00;;;;;;6294251;22;20446;-90
2022/07/17 07:34:16;;;;;;;1.70;1.37;;;18.10;1.00;;;;;;6295254;22;20918;-90
2022/07/17 07:36:52;;;;;;;4.87;1.60;;;18.40;1.00;;;;;;6293374;22;20443;-93
2022/07/17 07:39:20;;;;;;;4.70;1.40;;;18.30;1.00;;;;;;6296749;22;20429;-92
2022/07/17 07:41:53;;;;;;;6.23;2.10;;;18.30;1.00;;;;;;6295323;22;20408;-92
2022/07/17 07:44:20;;;;;;;4.53;2.20;;;18.30;1.00;;;;;;6298606;22;21148;-92
2022/07/17 07:46:51;;;;;;;4.90;2.00;;;18.50;1.00;;;;;;6284897;22;20388;-92
2022/07/17 07:49:18;;;;;;;2.10;1.63;;;18.70;1.00;;;;;;6294450;22;20506;-92
2022/07/17 07:51:51;;;;;;;3.30;1.53;;;18.80;1.00;;;;;;6294395;22;20419;-91
2022/07/17 07:54:18;;;;;;;4.17;1.60;;;18.90;1.00;;;;;;6279414;22;20951;-91
2022/07/17 07:56:51;;;;;;;3.17;1.73;;;18.80;1.00;;;;;;6281135;22;20422;-91
2022/07/17 07:59:24;;;;;;;5.60;2.00;;;18.70;1.00;;;;;;6295827;22;20455;-92
2022/07/17 08:01:51;;;;;;;3.53;1.77;;;18.50;1.00;;;;;;6294205;22;20434;-92
2022/07/17 08:04:19;;;;;;;2.33;1.47;;;18.40;1.00;;;;;;6283058;22;20435;-89
2022/07/17 08:06:50;;;;;;;6.63;2.50;;;18.40;1.00;;;;;;6292966;22;20395;-90
2022/07/17 08:09:19;;;;;;;3.80;1.63;;;18.50;1.00;;;;;;6295773;22;20414;-93
2022/07/17 08:11:52;;;;;;;3.80;2.20;;;18.50;1.00;;;;;;6295131;22;20474;-92
2022/07/17 08:14:20;;;;;;;3.03;1.83;;;18.40;1.00;;;;;;6293236;22;20447;-90
2022/07/17 08:16:47;;;;;;;2.33;1.63;;;18.40;1.00;;;;;;6291740;22;20597;-90
2022/07/17 08:19:14;;;;;;;5.77;2.63;;;18.30;1.00;;;;;;6294938;22;20426;-92
2022/07/17 08:21:41;;;;;;;4.50;2.20;;;18.30;1.00;;;;;;6291572;22;20434;-89
2022/07/17 08:24:12;;;;;;;2.90;1.50;;;18.20;1.00;;;;;;6294270;22;20383;-93
2022/07/17 08:26:40;;;;;;;3.40;1.93;;;18.20;1.00;;;;;;6292893;22;20953;-91
2022/07/17 08:29:10;;;;;;;3.87;1.73;;;18.30;1.00;;;;;;6293069;22;20541;-91
2022/07/17 08:31:37;;;;;;;4.93;2.00;;;18.30;1.00;;;;;;6294861;22;20419;-92
2022/07/17 08:34:09;;;;;;;3.13;1.80;;;18.40;1.00;;;;;;6293567;22;20430;-91
2022/07/17 08:36:36;;;;;;;2.33;1.63;;;18.50;1.00;;;;;;6280957;22;20426;-91
2022/07/17 08:39:14;;;;;;;3.80;1.83;;;18.60;1.00;;;;;;6293463;22;20386;-90
2022/07/17 08:41:41;;;;;;;5.83;2.40;;;18.70;1.00;;;;;;6261838;22;20887;-91
2022/07/17 08:44:11;;;;;;;4.77;2.00;;;18.80;1.00;;;;;;6292620;22;20391;-90
2022/07/17 08:46:40;;;;;;;2.50;1.90;;;18.80;1.00;;;;;;6293294;22;20411;-90
2022/07/17 08:49:12;;;;;;;2.23;1.70;;;18.80;1.00;;;;;;6292962;22;20482;-89
2022/07/17 08:51:40;;;;;;;2.83;1.77;;;19.10;1.00;;;;;;6293661;22;20386;-92
2022/07/17 08:54:10;;;;;;;3.77;1.90;;;19.40;1.00;;;;;;6292261;22;20387;-89
2022/07/17 08:56:40;;;;;;;3.87;2.00;;;19.80;1.00;;;;;;6295725;22;20985;-89
2022/07/17 08:59:12;;;;;;;3.07;1.80;;;19.90;1.00;;;;;;6293369;22;20407;-89
2022/07/17 09:01:39;;;;;;;3.27;2.20;;;20.00;1.00;;;;;;6280631;22;21174;-89
2022/07/17 09:04:12;;;;;;;5.20;2.00;;;19.90;1.00;;;;;;6292752;22;20391;-92
2022/07/17 09:06:39;;;;;;;2.10;1.50;;;19.80;1.00;;;;;;6294983;22;20872;-92
2022/07/17 09:09:14;;;;;;;5.77;2.40;;;19.90;1.00;;;;;;6277119;22;20399;-92
2022/07/17 09:11:55;;;;;;;2.87;2.03;;;19.90;1.00;;;;;;6292568;22;20439;-91
2022/07/17 09:14:22;;;;;;;3.23;1.87;;;20.00;1.00;;;;;;6293849;22;20556;-93
2022/07/17 09:16:57;;;;;;;4.60;1.93;;;20.20;1.00;;;;;;6293314;22;20446;-92
2022/07/17 09:19:32;;;;;;;1.70;1.53;;;20.40;1.00;;;;;;6293823;22;20423;-92
2022/07/17 09:22:22;;;;;;;2.50;1.50;;;20.60;1.00;;;;;;6291954;22;20454;-90
2022/07/17 09:24:52;;;;;;;4.77;1.97;;;20.70;1.00;;;;;;6287539;22;20426;-90
2022/07/17 09:27:33;;;;;;;3.77;2.13;;;20.90;1.00;;;;;;6293694;22;20415;-93
2022/07/17 09:30:02;;;;;;;3.90;1.83;;;21.10;1.00;;;;;;6292247;22;20794;-90
2022/07/17 09:32:40;;;;;;;4.20;2.03;;;21.30;1.00;;;;;;6293100;22;20497;-92
2022/07/17 09:35:12;;;;;;;4.47;2.37;;;21.30;1.00;;;;;;6290730;22;20483;-93
2022/07/17 09:37:42;;;;;;;4.60;2.27;;;21.40;1.00;;;;;;6289290;22;20414;-92
2022/07/17 09:40:11;;;;;;;2.23;1.60;;;21.60;1.00;;;;;;6287721;22;20423;-93
2022/07/17 09:42:39;;;;;;;3.60;1.93;;;22.00;1.00;;;;;;6291439;22;20490;-90
2022/07/17 09:45:11;;;;;;;3.20;1.70;;;22.50;1.00;;;;;;6291183;22;21132;-92
2022/07/17 09:47:40;;;;;;;3.33;2.13;;;22.90;1.00;;;;;;6279872;22;20423;-90
2022/07/17 09:50:09;;;;;;;2.00;1.60;;;23.30;1.00;;;;;;6291942;22;20407;-90
2022/07/17 09:52:46;;;;;;;3.20;1.80;;;23.50;1.00;;;;;;6276784;22;20407;-92
2022/07/17 09:55:21;;;;;;;4.47;4.07;;;23.20;1.00;;;;;;6277280;22;20415;-92
2022/07/17 09:57:52;;;;;;;8.43;1.97;;;23.10;1.00;;;;;;6292235;22;20407;-92
2022/07/17 10:00:22;;;;;;;3.53;1.90;;;23.50;1.00;;;;;;6292956;22;20387;-93
2022/07/17 10:02:52;;;;;;;2.60;1.50;;;24.00;1.00;;;;;;6289198;22;20422;-89
2022/07/17 10:05:24;;;;;;;3.10;2.00;;;24.10;1.00;;;;;;6290796;22;20395;-91
2022/07/17 10:07:51;;;;;;;3.60;2.07;;;23.90;1.00;;;;;;6286413;22;20467;-90
2022/07/17 10:10:21;;;;;;;2.27;1.63;;;23.50;1.00;;;;;;6292923;22;20435;-92
2022/07/17 10:12:51;;;;;;;3.90;2.03;;;23.20;1.00;;;;;;6278482;22;20419;-92
2022/07/17 10:15:25;;;;;;;2.83;1.83;;;22.90;1.00;;;;;;6290358;22;20477;-93
2022/07/17 10:18:03;;;;;;;2.63;1.80;;;23.00;1.00;;;;;;6290703;22;20399;-90
2022/07/17 10:20:33;;;;;;;4.80;1.80;;;23.30;1.00;;;;;;6289660;22;20462;-90
2022/07/17 10:23:13;;;;;;;3.33;2.00;;;23.30;1.00;;;;;;6291229;22;20395;-89
2022/07/17 10:25:40;;;;;;;3.97;1.80;;;23.70;1.00;;;;;;6291935;22;20488;-90
2022/07/17 10:28:12;;;;;;;2.70;1.70;;;24.30;1.00;;;;;;6294198;22;20398;-91
2022/07/17 10:30:46;;;;;;;3.70;2.23;;;24.80;1.00;;;;;;6277445;22;20451;-89
2022/07/17 10:33:21;;;;;;;3.43;1.80;;;25.10;1.00;;;;;;6290878;22;20514;-89
2022/07/17 10:35:50;;;;;;;2.43;1.90;;;25.60;1.00;;;;;;6275512;22;20382;-90
2022/07/17 10:38:24;;;;;;;6.20;1.80;;;26.20;1.00;;;;;;6291594;22;20830;-92
2022/07/17 10:41:01;;;;;;;4.70;1.93;;;26.20;1.00;;;;;;6291278;22;20425;-91
2022/07/17 10:43:43;;;;;;;4.37;2.17;;;25.60;1.00;;;;;;6287734;22;20435;-93
2022/07/17 10:46:10;;;;;;;3.07;2.20;;;25.20;1.00;;;;;;6291003;22;20440;-93
2022/07/17 10:48:50;;;;;;;2.63;1.57;;;25.40;1.00;;;;;;6291751;22;20403;-92
2022/07/17 10:51:21;;;;;;;2.93;2.00;;;26.60;1.00;;;;;;6290996;22;20434;-91
2022/07/17 10:53:49;;;;;;;5.13;2.47;;;28.30;1.00;;;;;;6290022;22;20978;-91
2022/07/17 10:56:19;;;;;;;2.40;1.80;;;29.70;1.00;;;;;;6293569;22;20697;-92
2022/07/17 10:58:53;;;;;;;3.30;1.70;;;31.00;1.00;;;;;;6291040;22;20473;-90
2022/07/17 11:01:22;;;;;;;3.30;1.80;;;30.60;1.00;;;;;;6294088;22;20415;-91
2022/07/17 11:03:51;;;;;;;4.70;1.60;;;30.60;1.00;;;;;;6290868;22;20907;-92
2022/07/17 11:06:24;;;;;;;3.10;1.97;;;31.00;1.00;;;;;;6277734;22;20391;-93
2022/07/17 11:08:53;;;;;;;3.10;2.37;;;32.00;1.00;;;;;;6293541;22;20783;-92
2022/07/17 11:11:33;;;;;;;3.37;1.83;;;32.40;1.00;;;;;;6293498;22;20414;-92
2022/07/17 11:14:13;;;;;;;2.70;1.83;;;33.10;1.00;;;;;;6273383;22;20426;-92
2022/07/17 11:29:29;;;;;;;2.30;1.53;;;34.60;1.00;;;;;;6106132;23;20426;-90
2022/07/17 11:32:01;;;;;;;3.07;2.00;;;35.10;1.00;;;;;;6167272;23;20430;-90
2022/07/17 11:34:31;;;;;;;3.10;1.53;;;35.50;1.00;;;;;;6144556;23;20394;-92
2022/07/17 11:37:03;;;;;;;2.00;1.60;;;35.50;1.00;;;;;;6169326;23;20449;-92
2022/07/17 11:39:41;;;;;;;3.23;1.90;;;35.50;1.00;;;;;;6168407;23;20607;-91
2022/07/17 11:42:10;;;;;;;2.60;1.40;;;34.70;1.00;;;;;;6170257;23;20427;-90
2022/07/17 11:44:45;;;;;;;2.73;1.30;;;34.50;1.00;;;;;;6183101;22;20399;-90
2022/07/17 11:47:20;;;;;;;3.03;1.30;;;34.50;1.00;;;;;;6247897;22;20466;-91
2022/07/17 11:50:04;;;;;;;2.03;1.83;;;34.60;1.00;;;;;;6261311;22;20434;-91
2022/07/17 11:52:41;;;;;;;2.27;2.07;;;35.10;1.00;;;;;;6260189;22;20463;-92
2022/07/17 11:55:13;;;;;;;3.23;1.67;;;35.70;1.00;;;;;;6260695;22;20440;-91
2022/07/17 11:57:46;;;;;;;3.10;2.10;;;36.00;1.00;;;;;;6263669;22;20423;-92
2022/07/17 12:00:27;;;;;;;2.50;1.83;;;36.50;1.00;;;;;;6258365;22;20404;-93
2022/07/17 12:05:54;;;;;;;2.97;1.60;;;37.50;1.00;;;;;;6227944;22;20431;-93
2022/07/17 12:08:21;;;;;;;3.53;1.90;;;37.60;1.00;;;;;;6251431;22;20403;-90
2022/07/17 12:11:03;;;;;;;5.60;4.90;;;37.40;1.00;;;;;;6233606;22;20443;-93
2022/07/17 12:13:59;;;;;;;2.03;1.83;;;37.20;1.00;;;;;;6246649;22;20407;-91
2022/07/17 12:16:36;;;;;;;2.83;1.83;;;37.40;1.00;;;;;;6247058;22;20400;-89
2022/07/17 12:19:18;;;;;;;1.93;1.70;;;37.40;1.00;;;;;;6258160;22;20455;-92
2022/07/17 12:22:10;;;;;;;4.50;2.20;;;37.10;1.00;;;;;;6276786;22;20402;-90
2022/07/17 12:24:40;;;;;;;2.03;1.20;;;37.20;1.00;;;;;;6325779;22;20569;-93
2022/07/17 12:27:19;;;;;;;2.97;2.00;;;37.50;1.00;;;;;;6306097;22;20382;-92
2022/07/17 12:29:53;;;;;;;6.13;3.70;;;37.80;1.00;;;;;;6306885;22;20417;-91
2022/07/17 12:33:02;;;;;;;2.30;1.60;;;37.50;1.00;;;;;;6325055;22;20413;-92
2022/07/17 12:35:32;;;;;;;4.27;1.67;;;37.10;1.00;;;;;;6294152;22;20420;-91
2022/07/17 12:37:59;;;;;;;4.33;1.73;;;37.40;1.00;;;;;;6320702;22;20472;-90
2022/07/17 12:40:31;;;;;;;3.13;1.40;;;37.60;1.00;;;;;;6325091;22;20498;-92
2022/07/17 12:42:58;;;;;;;3.20;1.87;;;38.00;1.00;;;;;;6294707;22;20462;-94
2022/07/17 12:45:35;;;;;;;3.10;1.80;;;38.10;1.00;;;;;;6332050;22;21233;-89
2022/07/17 12:48:10;;;;;;;2.83;2.03;;;38.30;1.00;;;;;;6330921;22;20409;-93
2022/07/17 12:50:38;;;;;;;2.97;1.97;;;38.70;1.00;;;;;;6316492;22;20405;-90
2022/07/17 12:53:17;;;;;;;6.80;2.83;;;38.90;1.00;;;;;;6326650;22;20474;-91
2022/07/17 12:55:51;;;;;;;2.47;2.00;;;38.80;1.00;;;;;;6308782;22;20410;-93
2022/07/17 12:58:33;;;;;;;2.47;1.40;;;38.80;1.00;;;;;;6286753;22;20456;-94
2022/07/17 13:01:10;;;;;;;3.00;1.60;;;38.50;1.00;;;;;;6309838;22;21680;-93
2022/07/17 13:03:49;;;;;;;2.97;1.53;;;38.50;1.00;;;;;;6308612;22;20508;-93
2022/07/17 13:06:21;;;;;;;5.33;1.83;;;38.60;1.00;;;;;;6302944;22;20517;-93
2022/07/17 13:08:54;;;;;;;3.40;1.60;;;38.40;1.00;;;;;;6308018;22;20394;-93
2022/07/17 13:11:21;;;;;;;2.90;1.40;;;38.70;1.00;;;;;;6298355;22;20398;-92
2022/07/17 13:13:51;;;;;;;2.70;1.17;;;39.10;1.00;;;;;;6323251;22;20405;-93
2022/07/17 13:16:33;;;;;;;2.47;1.30;;;39.40;1.00;;;;;;6325826;22;20430;-93
2022/07/17 13:19:02;;;;;;;3.90;2.67;;;39.50;1.00;;;;;;6309770;22;20465;-90
2022/07/17 13:21:31;;;;;;;2.40;1.50;;;39.80;1.00;;;;;;6307263;22;20412;-92
2022/07/17 13:24:01;;;;;;;2.40;1.60;;;40.20;1.00;;;;;;6320534;22;20456;-90
2022/07/17 13:26:33;;;;;;;2.67;2.10;;;40.30;1.00;;;;;;6322282;22;20418;-92
2022/07/17 13:29:00;;;;;;;5.10;1.47;;;39.70;1.00;;;;;;6319545;22;21825;-94
2022/07/17 13:31:43;;;;;;;1.63;1.40;;;39.40;1.00;;;;;;6305924;22;21257;-91
2022/07/17 13:34:15;;;;;;;2.03;1.33;;;39.50;1.00;;;;;;6321730;22;20427;-93